Terre Haute International Hulman Field
KHUF : rendu visible

Aérodrome :











RETROUVEZ-NOUS SUR...

 
LOGIN :

S'inscrire | Disclaimer

   EN    FR    IT 

 









Légende :    VFR   VFR Marginal   IFR   IFR Intensif   IFR Très Intensif
Visi : 
Plafond : 
>= 8 km
>= 3000ft
5 à 8 km
1000 à 3000 ft
1500m à 5 km
500 à 1000 ft
800 à 1500m
200 à 500 ft
< 800m
< 200 ft
Symboles :   Orages  Brouillard  Fortes neiges  Fortes précipitations  Vent > 20 kt






- Altitude de l'aérodrome : 589 ft
- Code IATA : HUF


KHUF - Terre Haute International Hulman Field

DERNIER METAR :
  • 191653Z 21011G15KT 10SM CLR 19/07 A2988 RMK AO2 SLP118 T01890072

METARs EXPIRÉS :
  • 191553Z 19006KT 10SM CLR 17/07 A2990 RMK AO2 SLP125 T01720072
  • 191453Z 16004KT 10SM CLR 13/07 A2991 RMK AO2 SLP127 T01330067 56004

TAF KHUF
Valide du 19 à 12h jusqu'au 20 à 12h UTC


191120Z 1912/2012 13005KT P6SM SKC
FM191500 16007KT P6SM SKC
FM200200 00000KT P6SM BKN120
FM200600 VRB03KT P6SM SCT090
FM200700 VRB03KT P6SM BKN080



MET'MAP, la Météo Aéronautique d'un coup d'oeil ! - Copyright ORBIFLY Décembre 2007 - Disclaimer

ORBIFLY MET'MAP TEAM :

Programmation & Développement : Alexandra Zaïnal
Conception & Développement : Baudouin d'Aumeries
Co-Programmation & Développement : Marc-Olivier Méhu
Soutien technique & logistique : Manuel Goepfert

Contact : metmap@orbifly.com




SOURCES & CREDITS :

   NOAA       Earth
Advisory